Time;durP1;ratioP1;P1;durP2;ratioP2;P2;SDS_P1;SDS_P2;PMS_P1;PMS_P2;Temp;Humidity;BMP_temperature;BMP_pressure;BME280_temperature;BME280_humidity;BME280_pressure;Samples;Min_cycle;Max_cycle;Signal;HPM_P1;HPM_P2
2023/08/01 00:01:42;;;;;;;11.63;7.65;;;;;;;18.06;85.50;97178.56;5078426;28;20042;-76
2023/08/01 00:04:07;;;;;;;18.35;8.45;;;;;;;18.02;85.41;97170.22;5063558;28;20090;-76
2023/08/01 00:06:32;;;;;;;15.25;9.00;;;;;;;18.16;85.66;97191.88;5062387;28;20040;-75
2023/08/01 00:08:58;;;;;;;13.80;8.43;;;;;;;18.10;85.69;97179.53;5062220;28;20024;-76
2023/08/01 00:11:23;;;;;;;13.77;8.10;;;;;;;18.06;85.70;97184.00;5077621;28;20105;-76
2023/08/01 00:13:48;;;;;;;15.65;8.80;;;;;;;17.94;86.00;97173.72;5064310;28;20040;-76
2023/08/01 00:16:14;;;;;;;11.93;7.82;;;;;;;18.02;86.22;97183.06;5062442;28;20119;-76
2023/08/01 00:18:39;;;;;;;12.82;8.63;;;;;;;18.04;86.28;97178.09;5062193;28;20103;-76
2023/08/01 00:21:05;;;;;;;12.95;8.10;;;;;;;17.79;86.16;97136.81;5057845;28;20484;-77
2023/08/01 00:23:31;;;;;;;10.93;8.55;;;;;;;17.75;86.45;97135.88;5085336;28;20030;-78
2023/08/01 00:25:58;;;;;;;13.68;8.60;;;;;;;17.65;86.96;97119.81;5052205;28;20081;-77
2023/08/01 00:28:26;;;;;;;12.07;8.30;;;;;;;17.48;87.25;97092.47;5047135;28;20467;-77
2023/08/01 00:31:02;;;;;;;12.70;8.65;;;;;;;17.70;86.96;97122.38;5045844;28;20033;-78
2023/08/01 00:33:28;;;;;;;14.05;9.18;;;;;;;17.82;86.75;97125.31;5056158;28;20037;-77
2023/08/01 00:35:54;;;;;;;16.38;9.50;;;;;;;17.89;87.20;97141.19;5068274;28;20474;-78
2023/08/01 00:38:20;;;;;;;14.85;9.30;;;;;;;17.76;87.58;97120.31;5059368;28;20052;-78
2023/08/01 00:40:45;;;;;;;14.65;8.77;;;;;;;17.86;87.58;97139.88;5077173;28;20025;-78
2023/08/01 00:43:11;;;;;;;12.07;7.88;;;;;;;17.85;87.47;97135.53;5051770;28;20085;-77
2023/08/01 00:45:36;;;;;;;11.75;8.10;;;;;;;17.77;87.41;97116.47;5056757;28;20028;-78
2023/08/01 00:48:02;;;;;;;14.63;8.27;;;;;;;17.86;87.90;97141.81;5038692;28;20444;-77
2023/08/01 00:50:27;;;;;;;12.90;8.98;;;;;;;17.67;88.65;97125.72;5052347;28;20082;-78
2023/08/01 00:52:53;;;;;;;14.50;8.82;;;;;;;17.49;88.65;97096.81;5082043;28;20084;-80
2023/08/01 00:55:19;;;;;;;12.43;9.55;;;;;;;17.75;88.68;97129.59;5061178;28;20017;-78
2023/08/01 00:57:44;;;;;;;13.82;9.05;;;;;;;17.73;88.70;97121.75;5086254;28;20399;-78
2023/08/01 01:00:10;;;;;;;12.10;9.30;;;;;;;17.65;88.87;97114.34;5070782;28;20118;-78
2023/08/01 01:02:36;;;;;;;14.95;9.32;;;;;;;17.62;89.25;97109.53;5064925;28;20032;-78
2023/08/01 01:05:03;;;;;;;17.60;10.48;;;;;;;17.47;89.20;97074.56;5060479;28;20036;-79
2023/08/01 01:07:29;;;;;;;16.40;10.73;;;;;;;17.71;88.68;97096.75;5053639;28;20400;-79
2023/08/01 01:09:55;;;;;;;13.73;10.00;;;;;;;17.71;87.91;97068.72;5057050;28;20020;-78
2023/08/01 01:12:21;;;;;;;14.15;9.98;;;;;;;17.47;89.18;97035.63;5073058;28;20036;-77
2023/08/01 01:14:46;;;;;;;20.50;12.10;;;;;;;17.67;89.14;97074.00;5036815;28;20074;-78
2023/08/01 01:17:12;;;;;;;16.48;11.23;;;;;;;17.64;89.09;97044.66;5048715;28;20037;-77
2023/08/01 01:19:37;;;;;;;18.98;11.30;;;;;;;17.63;89.18;97051.25;5039247;28;20021;-78
2023/08/01 01:22:07;;;;;;;17.27;10.70;;;;;;;17.77;89.00;97062.81;5062471;28;20478;-77
2023/08/01 01:24:34;;;;;;;18.52;11.18;;;;;;;17.73;89.46;97056.41;5078543;28;20032;-77
2023/08/01 01:27:00;;;;;;;19.17;11.60;;;;;;;17.57;89.20;97008.16;5064364;28;20032;-77
2023/08/01 01:29:28;;;;;;;15.15;11.20;;;;;;;17.58;89.45;97009.75;5068510;28;20032;-77
2023/08/01 01:31:53;;;;;;;17.90;11.02;;;;;;;17.36;89.73;96985.34;5062089;28;20036;-78
2023/08/01 01:34:19;;;;;;;20.20;11.75;;;;;;;17.33;89.79;96970.44;5041610;28;20045;-79
2023/08/01 01:36:44;;;;;;;13.75;10.32;;;;;;;17.64;89.97;97017.44;5050296;28;20013;-79
2023/08/01 01:39:10;;;;;;;19.92;11.88;;;;;;;17.74;89.97;97030.75;5079930;28;20040;-79
2023/08/01 01:41:35;;;;;;;19.80;11.80;;;;;;;17.68;90.05;97021.16;5045946;28;20436;-79
2023/08/01 01:44:01;;;;;;;20.15;12.55;;;;;;;17.62;90.17;97014.22;5060205;28;20037;-78
2023/08/01 01:46:26;;;;;;;16.23;11.45;;;;;;;17.68;90.29;97010.25;5063102;28;20020;-78
2023/08/01 01:48:51;;;;;;;17.13;11.43;;;;;;;17.43;90.18;96972.06;5055861;28;20063;-78
2023/08/01 01:51:17;;;;;;;16.77;12.57;;;;;;;17.74;90.23;97010.88;5045463;28;20185;-78
2023/08/01 01:53:42;;;;;;;22.02;12.27;;;;;;;17.68;90.36;96993.91;5058584;28;20124;-78
2023/08/01 01:56:09;;;;;;;13.40;11.40;;;;;;;17.75;90.41;97005.13;5046262;28;20021;-79
2023/08/01 01:58:34;;;;;;;17.42;11.45;;;;;;;17.55;90.34;96978.50;5062947;28;20509;-78
2023/08/01 02:00:59;;;;;;;15.93;11.10;;;;;;;17.18;90.44;96902.88;5037288;28;20024;-78
2023/08/01 02:03:25;;;;;;;21.25;11.43;;;;;;;17.54;90.66;96948.88;5035667;28;20122;-78
2023/08/01 02:05:50;;;;;;;17.30;11.13;;;;;;;17.47;90.64;96937.66;5045544;28;20025;-77
2023/08/01 02:08:17;;;;;;;16.13;11.05;;;;;;;17.49;90.82;96936.22;5036538;28;20037;-77
2023/08/01 02:10:42;;;;;;;15.77;11.02;;;;;;;17.65;90.66;96956.41;5045320;28;20491;-78
2023/08/01 02:13:08;;;;;;;18.83;11.68;;;;;;;17.78;90.79;96968.28;5067022;28;20103;-77
2023/08/01 02:15:34;;;;;;;16.60;11.30;;;;;;;17.77;91.16;96961.22;5044164;28;20383;-77
2023/08/01 02:17:59;;;;;;;17.20;10.25;;;;;;;17.68;90.93;96944.91;5057628;28;20503;-77
2023/08/01 02:20:25;;;;;;;18.48;11.98;;;;;;;17.72;90.68;96934.16;5061563;28;20025;-77
2023/08/01 02:22:52;;;;;;;18.27;12.15;;;;;;;17.71;90.99;96938.78;5062933;28;20055;-77
2023/08/01 02:25:17;;;;;;;19.08;13.25;;;;;;;17.57;91.37;96900.06;5081484;28;20024;-77
2023/08/01 02:27:42;;;;;;;18.10;12.07;;;;;;;17.53;91.52;96893.63;5060970;28;20494;-77
2023/08/01 02:30:09;;;;;;;16.77;11.98;;;;;;;17.58;91.40;96890.75;5048671;28;20084;-77
2023/08/01 02:32:34;;;;;;;20.65;12.20;;;;;;;17.67;91.50;96924.22;5082027;28;20032;-78
2023/08/01 02:35:03;;;;;;;19.80;12.13;;;;;;;17.57;91.72;96905.50;5065029;28;20103;-78
2023/08/01 02:37:29;;;;;;;18.95;12.70;;;;;;;17.37;92.11;96892.47;5061737;28;20041;-77
2023/08/01 02:39:54;;;;;;;15.85;11.48;;;;;;;17.63;91.85;96925.19;5060614;28;20019;-78
2023/08/01 02:42:19;;;;;;;14.82;11.48;;;;;;;17.57;92.16;96921.03;5045640;28;20395;-79
2023/08/01 02:44:45;;;;;;;19.17;11.93;;;;;;;17.63;92.09;96920.56;5063871;28;20021;-78
2023/08/01 02:47:10;;;;;;;17.40;11.73;;;;;;;17.55;91.71;96912.41;5057601;28;20472;-78
2023/08/01 02:49:36;;;;;;;19.25;12.20;;;;;;;17.66;91.88;96914.47;5050353;28;20092;-79
2023/08/01 02:52:01;;;;;;;16.75;11.48;;;;;;;17.61;92.18;96914.63;5054344;28;20150;-78
2023/08/01 02:54:27;;;;;;;18.90;12.50;;;;;;;17.65;92.13;96912.84;5041834;28;20025;-78
2023/08/01 02:56:52;;;;;;;17.83;10.88;;;;;;;17.54;92.07;96892.53;5070762;28;20039;-79
2023/08/01 02:59:18;;;;;;;18.27;11.00;;;;;;;17.52;91.91;96892.06;5057083;28;20025;-78
2023/08/01 03:01:44;;;;;;;16.70;11.02;;;;;;;17.63;91.98;96919.75;5053873;28;20118;-78
2023/08/01 03:04:11;;;;;;;20.02;12.23;;;;;;;17.54;92.33;96925.19;5036741;28;20055;-77
2023/08/01 03:06:37;;;;;;;20.60;12.45;;;;;;;17.52;92.55;96911.09;5052493;28;20441;-78
2023/08/01 03:09:02;;;;;;;18.35;12.05;;;;;;;17.68;92.34;96933.19;5049437;28;20390;-78
2023/08/01 03:11:28;;;;;;;18.98;12.15;;;;;;;17.72;91.96;96940.41;5057473;28;20082;-76
2023/08/01 03:13:54;;;;;;;17.20;10.07;;;;;;;17.71;91.33;96914.28;5080105;28;20398;-77
2023/08/01 03:16:19;;;;;;;17.83;11.38;;;;;;;17.50;91.85;96877.94;5043009;28;20075;-77
2023/08/01 03:18:45;;;;;;;15.27;10.63;;;;;;;17.57;91.15;96872.03;5048154;28;20415;-77
2023/08/01 03:21:10;;;;;;;19.05;12.07;;;;;;;17.81;91.69;96894.91;5080683;28;20111;-78
2023/08/01 03:23:36;;;;;;;17.42;10.95;;;;;;;17.75;91.54;96888.03;5051485;28;20030;-78
2023/08/01 03:26:01;;;;;;;17.85;12.10;;;;;;;17.81;91.57;96892.19;5046727;28;20462;-79
2023/08/01 03:28:27;;;;;;;18.85;11.35;;;;;;;17.68;91.64;96873.28;5049127;28;20436;-78
2023/08/01 03:30:53;;;;;;;20.42;11.88;;;;;;;17.68;92.02;96879.53;5069953;28;20504;-78
2023/08/01 03:33:20;;;;;;;21.00;13.02;;;;;;;17.59;91.62;96854.25;5046422;28;20028;-79
2023/08/01 03:35:45;;;;;;;18.92;12.30;;;;;;;17.72;91.83;96866.88;5042825;28;20029;-78
2023/08/01 03:38:11;;;;;;;20.80;12.13;;;;;;;17.58;91.81;96835.50;5049569;28;20407;-78
2023/08/01 03:40:37;;;;;;;20.75;12.80;;;;;;;17.61;91.61;96856.66;5052275;28;20035;-77
2023/08/01 03:43:02;;;;;;;21.30;13.07;;;;;;;17.61;92.41;96843.84;5045278;28;20031;-77
2023/08/01 03:45:27;;;;;;;18.63;11.35;;;;;;;17.58;92.27;96836.31;5057893;28;20024;-76
2023/08/01 03:47:54;;;;;;;15.70;11.50;;;;;;;17.71;91.98;96840.75;5062068;28;20470;-76
2023/08/01 03:50:20;;;;;;;16.13;11.63;;;;;;;17.57;92.05;96812.13;5058135;28;20043;-76
2023/08/01 03:52:48;;;;;;;19.30;11.35;;;;;;;17.60;92.13;96827.81;5066515;28;20028;-77
2023/08/01 03:55:14;;;;;;;18.13;10.82;;;;;;;17.41;92.00;96798.16;5077361;28;20043;-77
2023/08/01 03:57:42;;;;;;;17.80;11.05;;;;;;;17.70;92.33;96841.91;5051232;28;20559;-76
2023/08/01 04:00:13;;;;;;;16.98;9.75;;;;;;;17.55;92.27;96820.59;5078887;28;20036;-77
2023/08/01 04:02:42;;;;;;;15.73;10.77;;;;;;;17.64;92.04;96829.56;5080258;28;20040;-77
2023/08/01 04:05:08;;;;;;;17.00;11.05;;;;;;;17.69;92.15;96832.13;5072457;28;20035;-77
2023/08/01 04:07:40;;;;;;;19.27;11.57;;;;;;;17.71;92.27;96824.41;5064155;28;20055;-78
2023/08/01 04:10:06;;;;;;;17.27;10.63;;;;;;;17.32;92.25;96766.69;5045817;28;20044;-77
2023/08/01 04:12:32;;;;;;;15.70;10.82;;;;;;;17.74;92.22;96821.06;5074844;28;20119;-78
2023/08/01 04:14:58;;;;;;;17.55;11.30;;;;;;;17.38;92.27;96763.47;5061744;28;20039;-77
2023/08/01 04:17:23;;;;;;;14.73;10.30;;;;;;;17.53;92.65;96794.81;5045292;28;20029;-77
2023/08/01 04:19:49;;;;;;;14.52;9.52;;;;;;;17.51;92.27;96781.53;5068445;28;20032;-77
2023/08/01 04:22:14;;;;;;;15.90;9.70;;;;;;;17.68;92.28;96807.94;5064365;28;20063;-77
2023/08/01 04:24:40;;;;;;;13.75;9.68;;;;;;;17.68;91.63;96803.31;5089023;28;20037;-77
2023/08/01 04:27:05;;;;;;;15.10;9.35;;;;;;;17.20;91.86;96726.47;5046961;28;20036;-77
2023/08/01 04:29:31;;;;;;;12.82;9.50;;;;;;;17.42;92.37;96767.13;5060588;28;20050;-76
2023/08/01 04:31:56;;;;;;;16.98;10.25;;;;;;;17.56;92.47;96788.75;5081195;28;20025;-76
2023/08/01 04:34:22;;;;;;;15.35;9.55;;;;;;;17.45;92.84;96792.91;5050261;28;20036;-77
2023/08/01 04:36:47;;;;;;;14.77;9.25;;;;;;;17.25;93.11;96767.13;5063142;28;20032;-76
2023/08/01 04:39:12;;;;;;;14.18;9.40;;;;;;;17.45;93.23;96793.72;5076663;28;20485;-76
2023/08/01 04:41:41;;;;;;;13.02;9.27;;;;;;;17.42;93.07;96777.22;5059925;28;20024;-76
2023/08/01 04:44:07;;;;;;;15.25;8.38;;;;;;;17.41;93.43;96803.63;5082354;28;20366;-76
2023/08/01 04:46:32;;;;;;;15.48;9.30;;;;;;;17.59;92.93;96799.81;5031842;28;20095;-77
2023/08/01 04:48:58;;;;;;;14.68;9.30;;;;;;;17.53;93.01;96794.81;5051311;28;20075;-76
2023/08/01 04:51:24;;;;;;;13.70;9.45;;;;;;;17.51;93.34;96797.88;5065009;28;20024;-77
2023/08/01 04:53:49;;;;;;;13.95;9.70;;;;;;;17.53;93.75;96811.97;5067437;28;20093;-76
2023/08/01 04:56:15;;;;;;;17.25;9.90;;;;;;;17.55;93.31;96806.22;5080251;28;20497;-77
2023/08/01 04:58:40;;;;;;;14.25;9.20;;;;;;;17.37;92.97;96767.28;5040806;28;20097;-78
2023/08/01 05:01:06;;;;;;;14.45;10.00;;;;;;;17.68;93.28;96807.94;5034217;28;20116;-77
2023/08/01 05:03:31;;;;;;;16.77;9.75;;;;;;;17.68;92.56;96803.31;5062796;28;20684;-77
2023/08/01 05:05:56;;;;;;;14.50;8.85;;;;;;;17.57;92.61;96774.81;5034352;28;20021;-77
2023/08/01 05:08:22;;;;;;;16.42;9.70;;;;;;;17.64;92.51;96802.31;5050447;28;20040;-77
2023/08/01 05:10:47;;;;;;;18.80;9.90;;;;;;;17.65;92.61;96798.50;5079960;28;20111;-76
2023/08/01 05:13:13;;;;;;;16.25;9.63;;;;;;;17.80;92.82;96825.22;5040583;28;20380;-77
2023/08/01 05:15:38;;;;;;;18.58;10.02;;;;;;;17.77;92.85;96833.22;5061912;28;20028;-76
2023/08/01 05:18:03;;;;;;;16.02;9.90;;;;;;;17.48;93.34;96798.50;5066711;28;20039;-76
2023/08/01 05:20:30;;;;;;;14.50;9.27;;;;;;;17.57;93.16;96802.06;5053293;28;20059;-77
2023/08/01 05:22:58;;;;;;;17.17;9.63;;;;;;;17.82;92.90;96836.59;5071330;28;20033;-77
2023/08/01 05:25:23;;;;;;;15.60;9.82;;;;;;;17.69;92.85;96832.13;5062802;28;20060;-82
2023/08/01 05:27:48;;;;;;;15.57;9.35;;;;;;;17.48;93.25;96792.25;5060503;28;20037;-82
2023/08/01 05:30:14;;;;;;;13.25;9.10;;;;;;;17.72;92.92;96831.47;5060690;28;20078;-76
2023/08/01 05:32:40;;;;;;;15.02;9.50;;;;;;;17.56;93.21;96800.44;5040131;28;20029;-76
2023/08/01 05:35:06;;;;;;;11.68;9.18;;;;;;;17.75;92.93;96809.06;5082237;28;20577;-76
2023/08/01 05:37:31;;;;;;;13.93;9.40;;;;;;;17.70;93.16;96801.06;5066357;28;20035;-76
2023/08/01 05:39:57;;;;;;;14.05;8.63;;;;;;;17.66;93.31;96799.31;5044165;28;20500;-77
2023/08/01 05:42:22;;;;;;;12.65;8.38;;;;;;;17.81;93.07;96818.63;5040496;28;20098;-76
2023/08/01 05:44:48;;;;;;;12.85;8.75;;;;;;;17.83;93.37;96827.28;5064718;28;20032;-76
2023/08/01 05:47:13;;;;;;;13.68;8.10;;;;;;;17.70;93.15;96811.94;5066468;28;20044;-76
2023/08/01 05:49:38;;;;;;;15.00;8.90;;;;;;;17.71;93.08;96816.25;5078241;28;20020;-76
2023/08/01 05:52:04;;;;;;;14.52;8.20;;;;;;;17.78;93.19;96819.28;5057823;28;20037;-77
2023/08/01 05:54:30;;;;;;;11.32;7.30;;;;;;;17.71;93.51;96818.97;5062001;28;20029;-77
2023/08/01 05:56:55;;;;;;;12.23;8.10;;;;;;;17.67;92.76;96803.59;5067026;28;20501;-77
2023/08/01 05:59:20;;;;;;;10.27;7.70;;;;;;;17.66;92.98;96811.00;5081760;28;20064;-77
2023/08/01 06:01:46;;;;;;;11.88;7.65;;;;;;;17.75;92.94;96825.41;5093537;28;20031;-77
2023/08/01 06:04:12;;;;;;;10.73;7.35;;;;;;;17.70;93.07;96817.38;5081451;28;20023;-77
2023/08/01 06:06:37;;;;;;;14.32;8.45;;;;;;;17.82;92.88;96831.16;5063713;28;20037;-81
2023/08/01 06:09:02;;;;;;;13.88;8.85;;;;;;;17.77;92.78;96823.16;5061950;28;20111;-79
2023/08/01 06:11:28;;;;;;;13.27;8.13;;;;;;;17.92;92.35;96830.00;5076052;28;20035;-80
2023/08/01 06:13:53;;;;;;;14.80;8.10;;;;;;;17.88;92.59;96823.59;5053510;28;20504;-81
2023/08/01 06:16:19;;;;;;;11.98;8.25;;;;;;;17.83;92.88;96827.28;5066009;28;20432;-77
2023/08/01 06:18:44;;;;;;;13.07;7.57;;;;;;;17.91;92.51;96826.47;5049902;28;20127;-77
2023/08/01 06:21:09;;;;;;;11.88;7.28;;;;;;;17.43;92.45;96741.53;5047523;28;20036;-77
2023/08/01 06:23:35;;;;;;;12.88;8.05;;;;;;;17.98;92.47;96834.13;5055997;28;20033;-77
2023/08/01 06:26:00;;;;;;;11.05;7.22;;;;;;;17.91;92.91;96837.38;5063109;28;20474;-77
2023/08/01 06:28:26;;;;;;;11.50;7.15;;;;;;;17.79;92.94;96812.72;5047068;28;20076;-77
2023/08/01 06:30:51;;;;;;;11.00;7.65;;;;;;;17.75;92.90;96798.16;5043731;28;20040;-77
2023/08/01 06:33:17;;;;;;;10.00;7.05;;;;;;;17.73;93.38;96815.94;5066654;28;20146;-77
2023/08/01 06:35:42;;;;;;;13.65;7.60;;;;;;;17.86;92.97;96836.72;5062508;28;20044;-77
2023/08/01 06:38:07;;;;;;;13.05;7.80;;;;;;;17.87;93.13;96844.59;5063562;28;20114;-77
2023/08/01 06:40:33;;;;;;;12.90;7.93;;;;;;;17.83;92.99;96838.19;5046476;28;20494;-77
2023/08/01 06:42:58;;;;;;;9.25;7.25;;;;;;;17.64;93.54;96824.13;5050323;28;20024;-76
2023/08/01 06:45:24;;;;;;;11.73;6.90;;;;;;;17.71;93.22;96840.75;5094249;28;20056;-77
2023/08/01 06:47:49;;;;;;;11.23;6.82;;;;;;;17.75;93.32;96852.63;5079596;28;20466;-76
2023/08/01 06:50:14;;;;;;;12.40;7.20;;;;;;;17.69;93.66;96836.78;5060127;28;20032;-77
2023/08/01 06:52:40;;;;;;;10.82;6.82;;;;;;;17.56;93.96;96827.66;5065684;28;20516;-76
2023/08/01 06:55:05;;;;;;;11.77;7.32;;;;;;;17.55;94.04;96815.16;5048752;28;20502;-76
2023/08/01 06:57:31;;;;;;;8.68;6.72;;;;;;;17.66;93.49;96832.78;5061500;28;20549;-76
2023/08/01 06:59:56;;;;;;;13.77;7.80;;;;;;;17.62;93.63;96820.91;5043810;28;20037;-77
2023/08/01 07:02:22;;;;;;;11.18;6.82;;;;;;;17.75;93.14;96819.13;5045766;28;20162;-77
2023/08/01 07:04:47;;;;;;;10.50;7.50;;;;;;;17.72;93.35;96790.63;5081012;28;20044;-77
2023/08/01 07:07:13;;;;;;;10.07;7.55;;;;;;;17.65;93.54;96792.25;5052979;28;20028;-77
2023/08/01 07:09:39;;;;;;;9.40;6.80;;;;;;;17.84;93.75;96812.56;5067960;28;20044;-77
2023/08/01 07:12:05;;;;;;;10.23;6.28;;;;;;;17.76;93.09;96788.84;5040379;28;20021;-77
2023/08/01 07:14:30;;;;;;;11.10;7.05;;;;;;;17.85;93.44;96805.97;5052266;28;20462;-77
2023/08/01 07:16:55;;;;;;;9.88;7.00;;;;;;;17.65;93.36;96776.72;5065782;28;20052;-77
2023/08/01 07:19:21;;;;;;;12.02;7.47;;;;;;;17.73;93.03;96778.63;5076395;28;20036;-77
2023/08/01 07:21:48;;;;;;;12.27;6.47;;;;;;;17.79;93.02;96804.56;5062591;28;20478;-77
2023/08/01 07:24:14;;;;;;;9.98;6.32;;;;;;;17.78;93.28;96802.16;5063858;28;20091;-82
2023/08/01 07:26:40;;;;;;;10.07;6.20;;;;;;;17.80;92.82;96800.72;5065225;28;20044;-77
2023/08/01 07:29:07;;;;;;;11.02;6.80;;;;;;;17.93;92.74;96832.41;5067525;28;20033;-77
2023/08/01 07:31:33;;;;;;;10.93;7.22;;;;;;;17.78;92.79;96813.84;5083277;28;20067;-76
2023/08/01 07:33:59;;;;;;;10.38;6.65;;;;;;;17.98;92.36;96825.97;5066425;28;20068;-77
2023/08/01 07:36:24;;;;;;;9.70;6.80;;;;;;;18.00;92.46;96825.63;5059354;28;20032;-77
2023/08/01 07:38:49;;;;;;;10.32;6.95;;;;;;;18.05;92.58;96828.19;5077950;28;20040;-77
2023/08/01 07:41:15;;;;;;;8.95;6.85;;;;;;;17.95;92.13;96808.34;5065805;28;20025;-77
2023/08/01 07:43:40;;;;;;;8.60;6.90;;;;;;;18.03;92.15;96819.53;5067965;28;20750;-77
2023/08/01 07:46:08;;;;;;;9.35;7.10;;;;;;;18.06;92.15;96824.34;5039958;28;20482;-77
2023/08/01 07:48:34;;;;;;;8.73;6.35;;;;;;;18.04;91.78;96805.59;5035911;28;20098;-77
2023/08/01 07:51:00;;;;;;;10.57;6.63;;;;;;;18.23;92.16;96829.72;5051269;28;20020;-77
2023/08/01 07:53:25;;;;;;;12.07;6.90;;;;;;;18.18;91.60;96832.66;5067673;28;20043;-77
2023/08/01 07:55:52;;;;;;;11.60;7.03;;;;;;;18.15;91.43;96806.03;5061670;28;20028;-77
2023/08/01 07:58:17;;;;;;;7.97;6.43;;;;;;;18.16;91.28;96774.91;5043266;28;20136;-77
2023/08/01 08:00:43;;;;;;;10.23;6.65;;;;;;;18.25;91.83;96789.34;5085825;28;20111;-77
2023/08/01 08:03:08;;;;;;;11.63;6.78;;;;;;;18.17;91.91;96763.72;5067362;28;20036;-77
2023/08/01 08:05:36;;;;;;;9.00;6.65;;;;;;;18.29;92.11;96784.81;5078620;28;20070;-77
2023/08/01 08:08:02;;;;;;;8.60;7.00;;;;;;;18.12;92.07;96763.91;5063945;28;20046;-77
2023/08/01 08:10:27;;;;;;;10.10;7.10;;;;;;;18.34;91.36;96814.63;5065383;28;20450;-77
2023/08/01 08:12:52;;;;;;;9.73;7.05;;;;;;;18.09;91.18;96783.63;5043436;28;20098;-77
2023/08/01 08:15:19;;;;;;;10.40;7.15;;;;;;;18.22;91.14;96818.03;5065130;28;20475;-77
2023/08/01 08:17:44;;;;;;;9.88;7.85;;;;;;;17.99;91.37;96799.53;5030338;28;20550;-77
2023/08/01 08:20:10;;;;;;;9.32;7.10;;;;;;;17.75;91.30;96754.59;5059065;28;20096;-77
2023/08/01 08:22:35;;;;;;;10.48;7.50;;;;;;;18.09;91.62;96807.31;5059702;28;20254;-77
2023/08/01 08:25:00;;;;;;;9.63;6.53;;;;;;;18.16;91.60;96813.88;5067947;28;20035;-77
2023/08/01 08:27:26;;;;;;;12.30;7.95;;;;;;;18.08;91.59;96808.47;5066140;28;20040;-77
2023/08/01 08:29:51;;;;;;;10.77;7.53;;;;;;;18.02;91.68;96790.72;5053425;28;20418;-77
2023/08/01 08:32:17;;;;;;;10.95;8.07;;;;;;;18.08;91.79;96789.41;5058220;28;20036;-77
2023/08/01 08:34:42;;;;;;;10.18;7.25;;;;;;;17.87;92.02;96783.88;5045113;28;20114;-77
2023/08/01 08:37:08;;;;;;;10.43;7.65;;;;;;;18.06;92.41;96818.91;5060208;28;20041;-77
2023/08/01 08:39:33;;;;;;;10.43;8.10;;;;;;;18.11;92.48;96816.00;5085332;28;20024;-76
2023/08/01 08:41:59;;;;;;;9.48;7.20;;;;;;;18.12;92.08;96784.88;5065842;28;20458;-77
2023/08/01 08:44:24;;;;;;;10.95;8.02;;;;;;;18.20;91.87;96797.69;5057027;28;20024;-77
2023/08/01 08:46:52;;;;;;;12.73;7.57;;;;;;;18.28;92.65;96813.19;5083754;28;20024;-77
2023/08/01 08:49:19;;;;;;;10.27;6.97;;;;;;;18.30;91.72;96809.00;5086534;28;20391;-77
2023/08/01 08:51:45;;;;;;;9.13;6.78;;;;;;;18.27;91.05;96793.34;5083841;28;20039;-77
2023/08/01 08:54:11;;;;;;;9.45;6.40;;;;;;;18.21;91.80;96782.91;5044840;28;20019;-77
2023/08/01 08:56:38;;;;;;;8.38;6.55;;;;;;;18.34;91.37;96793.59;5059437;28;20072;-77
2023/08/01 08:59:04;;;;;;;8.50;6.43;;;;;;;18.35;91.02;96783.50;5073574;28;20549;-77
2023/08/01 09:01:31;;;;;;;9.85;6.60;;;;;;;18.30;91.25;96786.41;5042055;28;20033;-77
2023/08/01 09:03:57;;;;;;;9.75;6.75;;;;;;;18.41;91.16;96782.19;5063812;28;20044;-77
2023/08/01 09:06:30;;;;;;;9.65;6.95;;;;;;;18.28;90.87;96761.41;5059691;28;20028;-77
2023/08/01 09:09:05;;;;;;;7.45;6.35;;;;;;;18.12;90.63;96746.75;5047391;28;20089;-76
2023/08/01 09:11:57;;;;;;;8.75;6.63;;;;;;;18.36;90.88;96785.09;5042345;28;20048;-79
2023/08/01 09:14:22;;;;;;;11.23;6.95;;;;;;;18.22;91.50;96752.63;5061020;28;20123;-77
2023/08/01 09:16:48;;;;;;;9.48;7.30;;;;;;;18.48;91.86;96785.25;5067000;28;20116;-77
2023/08/01 09:19:21;;;;;;;10.55;7.82;;;;;;;18.54;91.67;96790.16;5048407;28;20039;-77
2023/08/01 09:21:47;;;;;;;12.85;8.18;;;;;;;18.51;91.75;96770.94;5059803;28;20123;-77
2023/08/01 09:24:14;;;;;;;11.43;6.97;;;;;;;18.46;91.90;96779.31;5057594;28;20371;-76
2023/08/01 09:26:42;;;;;;;11.05;7.72;;;;;;;18.17;92.11;96744.63;5045747;28;20414;-77
2023/08/01 09:29:07;;;;;;;9.63;7.20;;;;;;;18.39;92.02;96770.81;5066157;28;20020;-77
2023/08/01 09:31:34;;;;;;;9.88;8.05;;;;;;;18.52;91.67;96784.25;5077821;28;20077;-77
2023/08/01 09:34:01;;;;;;;12.65;8.60;;;;;;;18.29;91.85;96733.03;5061137;28;20017;-77
2023/08/01 09:36:26;;;;;;;12.50;7.75;;;;;;;18.37;92.06;96748.53;5050197;28;20043;-77
2023/08/01 09:38:51;;;;;;;10.18;7.38;;;;;;;18.42;92.09;96764.69;5044417;28;20025;-77
2023/08/01 09:41:18;;;;;;;12.07;7.72;;;;;;;18.44;92.78;96770.63;5070581;28;20072;-77
2023/08/01 09:43:45;;;;;;;10.18;6.65;;;;;;;18.02;92.14;96692.63;5053579;28;20024;-77
2023/08/01 09:46:11;;;;;;;10.55;7.70;;;;;;;18.41;92.20;96760.38;5066938;28;20035;-77
2023/08/01 09:48:36;;;;;;;9.30;6.95;;;;;;;18.35;92.52;96756.22;5080952;28;20025;-76
2023/08/01 09:51:10;;;;;;;9.02;6.70;;;;;;;18.25;92.52;96746.50;5067194;28;20055;-77
2023/08/01 09:53:49;;;;;;;8.43;6.38;;;;;;;18.41;91.99;96754.94;5064374;28;20039;-77
2023/08/01 09:56:18;;;;;;;10.70;6.35;;;;;;;18.53;92.21;96760.47;5066530;28;20035;-77
2023/08/01 09:58:44;;;;;;;8.13;6.07;;;;;;;18.53;91.98;96755.03;5063378;28;20485;-77
2023/08/01 10:01:10;;;;;;;7.72;5.57;;;;;;;18.75;92.09;96775.75;5047195;28;20406;-77
2023/08/01 10:03:36;;;;;;;9.80;5.22;;;;;;;18.52;91.28;96731.63;5084003;28;20020;-77
2023/08/01 10:06:01;;;;;;;5.68;5.00;;;;;;;18.51;90.68;96766.28;5066776;28;20371;-77
2023/08/01 10:08:29;;;;;;;5.53;4.40;;;;;;;18.61;90.51;96776.00;5063966;28;20106;-76
2023/08/01 10:10:56;;;;;;;7.82;4.82;;;;;;;18.70;90.09;96779.47;5083926;28;20040;-77
2023/08/01 10:13:24;;;;;;;7.65;5.22;;;;;;;18.61;91.10;96757.72;5087402;28;20028;-77
2023/08/01 10:15:50;;;;;;;4.78;4.22;;;;;;;18.70;89.76;96757.66;5068555;28;20096;-77
2023/08/01 10:18:16;;;;;;;4.85;4.40;;;;;;;18.71;89.98;96759.25;5064796;28;20363;-77
2023/08/01 10:20:43;;;;;;;5.88;4.97;;;;;;;18.85;89.77;96739.91;5063685;28;20048;-77
2023/08/01 10:23:09;;;;;;;6.30;4.72;;;;;;;18.86;89.89;96755.94;5067422;28;20020;-76
2023/08/01 10:25:34;;;;;;;8.05;4.82;;;;;;;18.80;90.23;96751.00;5075586;28;20028;-77
2023/08/01 10:28:01;;;;;;;6.93;4.50;;;;;;;18.53;90.14;96736.75;5064406;28;20536;-76
2023/08/01 10:30:27;;;;;;;6.35;4.65;;;;;;;18.06;92.02;96769.84;5045525;28;20037;-76
2023/08/01 10:32:56;;;;;;;4.03;2.95;;;;;;;18.09;87.20;96797.25;5083913;28;20025;-76
2023/08/01 10:35:32;;;;;;;3.13;2.75;;;;;;;17.87;84.18;96794.75;5051382;28;20036;-76
2023/08/01 10:38:03;;;;;;;;;;;;;;;17.47;84.16;96813.22;5046542;28;20032;-76
2023/08/01 10:40:37;;;;;;;3.13;2.40;;;;;;;17.63;83.81;96799.94;5063639;28;19912;-76
2023/08/01 10:43:02;;;;;;;4.97;2.15;;;;;;;17.60;84.01;96815.00;5050877;28;20040;-76
2023/08/01 10:45:29;;;;;;;3.60;2.05;;;;;;;17.30;82.71;96815.97;5048668;28;20017;-77
2023/08/01 10:48:06;;;;;;;3.40;2.20;;;;;;;17.18;83.01;96829.41;5086579;28;20036;-77
2023/08/01 10:50:31;;;;;;;2.97;1.95;;;;;;;16.64;83.32;96802.81;5072928;28;20050;-79
2023/08/01 10:53:08;;;;;;;3.30;2.10;;;;;;;17.01;82.83;96843.78;5056018;28;20028;-76
2023/08/01 10:55:41;;;;;;;2.85;2.25;;;;;;;16.93;83.92;96865.53;5075872;28;20094;-77
2023/08/01 10:58:07;;;;;;;3.22;2.25;;;;;;;16.73;85.03;96858.00;5053031;28;20120;-77
2023/08/01 11:00:33;;;;;;;4.20;2.70;;;;;;;16.71;84.62;96817.50;5064071;28;20430;-77
2023/08/01 11:02:58;;;;;;;2.95;2.40;;;;;;;16.93;84.64;96857.38;5050897;28;20426;-76
2023/08/01 11:05:25;;;;;;;3.78;2.60;;;;;;;16.97;85.16;96858.34;5063044;28;20020;-77
2023/08/01 11:07:56;;;;;;;5.10;2.75;;;;;;;17.09;84.85;96834.84;5081321;28;20041;-76
2023/08/01 11:10:22;;;;;;;2.70;2.50;;;;;;;17.20;85.38;96838.03;5086287;28;20051;-76
2023/08/01 11:12:47;;;;;;;3.08;2.75;;;;;;;17.27;84.72;96841.09;5051638;28;20028;-78
2023/08/01 11:15:14;;;;;;;4.40;3.05;;;;;;;17.43;85.52;96849.59;5040621;28;20043;-77
2023/08/01 11:17:41;;;;;;;3.10;2.80;;;;;;;17.32;86.22;96854.53;5052777;28;20429;-77
2023/08/01 11:20:11;;;;;;;4.88;3.10;;;;;;;17.43;86.02;96839.50;5066584;28;20086;-77